Time;durP1;ratioP1;P1;durP2;ratioP2;P2;SDS_P1;SDS_P2;PMS_P1;PMS_P2;Temp;Humidity;BMP_temperature;BMP_pressure;BME280_temperature;BME280_humidity;BME280_pressure;Samples;Min_cycle;Max_cycle;Signal;HPM_P1;HPM_P2
2021/10/10 00:00:28;;;;;;;12.55;9.15;;;6.70;99.90;;;;;;1942625;72;21063;-76
2021/10/10 00:02:54;;;;;;;20.97;11.15;;;6.70;99.90;;;;;;1934173;72;21043;-76
2021/10/10 00:05:20;;;;;;;14.60;9.80;;;6.70;99.90;;;;;;1944231;72;21063;-77
2021/10/10 00:07:46;;;;;;;13.60;9.20;;;6.70;99.90;;;;;;1916503;73;21148;-76
2021/10/10 00:10:12;;;;;;;16.42;9.63;;;6.70;99.90;;;;;;1929114;72;21122;-76
2021/10/10 00:12:38;;;;;;;18.52;8.95;;;6.60;99.90;;;;;;1924306;72;21048;-76
2021/10/10 00:15:04;;;;;;;14.28;9.45;;;6.60;99.90;;;;;;1927032;73;21066;-76
2021/10/10 00:17:31;;;;;;;15.35;8.85;;;6.60;99.90;;;;;;1929416;72;21486;-76
2021/10/10 00:19:57;;;;;;;17.48;9.43;;;6.60;99.90;;;;;;1926645;72;21490;-76
2021/10/10 00:22:23;;;;;;;15.98;9.70;;;6.60;99.90;;;;;;1934090;73;21560;-76
2021/10/10 00:24:49;;;;;;;19.73;8.88;;;6.50;99.90;;;;;;1922509;73;21559;-76
2021/10/10 00:27:15;;;;;;;18.00;9.25;;;6.40;99.90;;;;;;1937750;73;21063;-76
2021/10/10 00:29:41;;;;;;;16.05;8.95;;;6.40;99.90;;;;;;1932541;73;21132;-76
2021/10/10 00:32:08;;;;;;;21.80;9.53;;;6.40;99.90;;;;;;1939526;72;21128;-75
2021/10/10 00:34:34;;;;;;;13.65;10.32;;;6.40;99.90;;;;;;1933046;72;21059;-76
2021/10/10 00:37:00;;;;;;;16.27;9.70;;;6.40;99.90;;;;;;1920752;72;21078;-76
2021/10/10 00:39:26;;;;;;;21.00;9.93;;;6.40;99.90;;;;;;1940952;73;21193;-75
2021/10/10 00:41:52;;;;;;;14.50;9.43;;;6.30;99.90;;;;;;1918785;72;21067;-76
2021/10/10 00:44:18;;;;;;;13.75;9.50;;;6.30;99.90;;;;;;1932559;73;21074;-76
2021/10/10 00:46:44;;;;;;;12.95;9.83;;;6.30;99.90;;;;;;1942607;72;21061;-76
2021/10/10 00:49:10;;;;;;;16.17;9.68;;;6.10;99.90;;;;;;1936191;72;21583;-76
2021/10/10 00:51:37;;;;;;;12.35;9.25;;;6.10;99.90;;;;;;1937719;73;21506;-76
2021/10/10 00:54:03;;;;;;;11.63;8.65;;;6.10;99.90;;;;;;1929055;72;21544;-76
2021/10/10 00:56:29;;;;;;;17.70;9.98;;;6.10;99.90;;;;;;1941834;72;21502;-76
2021/10/10 00:58:55;;;;;;;17.70;9.28;;;6.10;99.90;;;;;;1924664;73;21036;-76
2021/10/10 01:01:22;;;;;;;21.00;9.63;;;6.00;99.90;;;;;;1911560;72;21059;-76
2021/10/10 01:03:48;;;;;;;16.02;9.53;;;6.00;99.90;;;;;;1926570;72;21066;-76
2021/10/10 01:06:14;;;;;;;19.15;9.55;;;6.00;99.90;;;;;;1937141;73;21066;-76
2021/10/10 01:08:40;;;;;;;20.52;9.73;;;6.00;99.90;;;;;;1930374;73;21179;-76
2021/10/10 01:11:06;;;;;;;18.95;9.45;;;6.00;99.90;;;;;;1938257;72;21074;-76
2021/10/10 01:13:32;;;;;;;16.82;9.85;;;5.90;99.90;;;;;;1935791;73;22809;-75
2021/10/10 01:15:58;;;;;;;19.00;9.68;;;5.90;99.90;;;;;;1944242;72;21654;-75
2021/10/10 01:18:25;;;;;;;15.70;9.65;;;5.80;99.90;;;;;;1938728;72;21537;-76
2021/10/10 01:20:51;;;;;;;17.45;9.73;;;5.80;99.90;;;;;;1936265;72;21487;-75
2021/10/10 01:23:17;;;;;;;15.18;10.00;;;5.80;99.90;;;;;;1945415;72;21137;-75
2021/10/10 01:25:43;;;;;;;10.08;8.68;;;5.70;99.90;;;;;;1943675;72;21035;-76
2021/10/10 01:28:09;;;;;;;16.27;9.63;;;5.70;99.90;;;;;;1945133;71;21129;-76
2021/10/10 01:30:35;;;;;;;20.45;9.50;;;5.60;99.90;;;;;;1916305;72;21141;-75
2021/10/10 01:33:01;;;;;;;16.75;10.40;;;5.60;99.90;;;;;;1934703;72;21068;-75
2021/10/10 01:35:28;;;;;;;11.68;8.93;;;5.60;99.90;;;;;;1933060;73;21070;-76
2021/10/10 01:37:54;;;;;;;17.48;9.70;;;5.60;99.90;;;;;;1937298;72;21128;-76
2021/10/10 01:40:20;;;;;;;14.18;8.90;;;5.60;99.90;;;;;;1939585;73;21125;-75
2021/10/10 01:42:46;;;;;;;15.38;10.15;;;5.50;99.90;;;;;;1930428;72;21071;-76
2021/10/10 01:45:12;;;;;;;17.42;9.45;;;5.50;99.90;;;;;;1944810;71;21144;-75
2021/10/10 01:47:38;;;;;;;14.25;9.43;;;5.50;99.90;;;;;;1940573;72;21450;-75
2021/10/10 01:50:04;;;;;;;15.35;9.03;;;5.40;99.90;;;;;;1930600;72;21570;-76
2021/10/10 01:52:30;;;;;;;16.93;9.13;;;5.40;99.90;;;;;;1941081;72;21518;-76
2021/10/10 01:54:56;;;;;;;20.12;9.58;;;5.40;99.90;;;;;;1928277;73;21467;-76
2021/10/10 01:57:23;;;;;;;19.45;9.58;;;5.30;99.90;;;;;;1914939;72;21063;-76
2021/10/10 01:59:49;;;;;;;13.88;9.43;;;5.30;99.90;;;;;;1940662;72;21048;-76
2021/10/10 02:02:15;;;;;;;24.52;9.40;;;5.30;99.90;;;;;;1938758;72;21075;-76
2021/10/10 02:04:41;;;;;;;10.72;8.83;;;5.30;99.90;;;;;;1927251;72;21097;-75
2021/10/10 02:07:07;;;;;;;11.53;8.45;;;5.30;99.90;;;;;;1918594;72;21062;-76
2021/10/10 02:09:33;;;;;;;16.07;9.58;;;5.30;99.90;;;;;;1918003;73;21044;-75
2021/10/10 02:11:59;;;;;;;40.08;9.70;;;5.30;99.90;;;;;;1929792;72;21172;-75
2021/10/10 02:14:25;;;;;;;12.47;8.35;;;5.30;99.90;;;;;;1932648;72;21274;-75
2021/10/10 02:16:52;;;;;;;12.65;9.03;;;5.20;99.90;;;;;;1938127;72;21110;-76
2021/10/10 02:19:18;;;;;;;12.15;8.10;;;5.20;99.90;;;;;;1925749;72;21059;-76
2021/10/10 02:21:44;;;;;;;13.75;8.55;;;5.10;99.90;;;;;;1933989;71;21105;-76
2021/10/10 02:24:10;;;;;;;14.23;9.78;;;5.10;99.90;;;;;;1927903;73;21156;-75
2021/10/10 02:26:37;;;;;;;14.13;9.00;;;5.10;99.90;;;;;;1947676;72;21058;-76
2021/10/10 02:29:03;;;;;;;16.73;9.43;;;5.10;99.90;;;;;;1934668;73;21074;-76
2021/10/10 02:31:30;;;;;;;13.05;8.90;;;5.00;99.90;;;;;;1930593;72;21063;-75
2021/10/10 02:33:56;;;;;;;14.55;9.95;;;5.00;99.90;;;;;;1932632;73;21066;-75
2021/10/10 02:36:22;;;;;;;10.95;8.28;;;5.00;99.90;;;;;;1943980;73;21040;-76
2021/10/10 02:38:48;;;;;;;12.13;8.63;;;5.00;99.90;;;;;;1940294;72;21070;-76
2021/10/10 02:41:14;;;;;;;17.15;8.23;;;4.80;99.90;;;;;;1935557;72;21120;-76
2021/10/10 02:43:40;;;;;;;11.22;7.70;;;4.80;99.90;;;;;;1912538;72;21161;-75
2021/10/10 02:46:06;;;;;;;14.35;7.47;;;4.80;99.90;;;;;;1937421;72;21075;-74
2021/10/10 02:48:32;;;;;;;13.68;8.60;;;4.80;99.90;;;;;;1918963;72;21039;-75
2021/10/10 02:50:58;;;;;;;16.15;8.45;;;4.70;99.90;;;;;;1928804;72;21560;-75
2021/10/10 02:53:25;;;;;;;12.45;9.30;;;4.70;99.90;;;;;;1920957;72;21548;-75
2021/10/10 02:55:51;;;;;;;14.53;7.85;;;4.70;99.90;;;;;;1929034;72;21509;-75
2021/10/10 02:58:17;;;;;;;22.82;9.65;;;4.70;99.90;;;;;;1934944;72;21128;-75
2021/10/10 03:00:44;;;;;;;13.93;8.48;;;4.70;99.90;;;;;;1950565;72;21059;-74
2021/10/10 03:03:10;;;;;;;13.00;8.90;;;4.60;99.90;;;;;;1934023;72;21048;-74
2021/10/10 03:05:36;;;;;;;15.80;8.78;;;4.60;99.90;;;;;;1923283;71;21121;-74
2021/10/10 03:08:02;;;;;;;10.53;8.60;;;4.60;99.90;;;;;;1932580;73;21201;-77
2021/10/10 03:10:29;;;;;;;12.25;8.18;;;4.50;99.90;;;;;;1922538;72;21482;-74
2021/10/10 03:12:55;;;;;;;12.40;8.75;;;4.50;99.90;;;;;;1931869;73;21544;-75
2021/10/10 03:15:21;;;;;;;12.45;9.08;;;4.50;99.90;;;;;;1926750;72;21443;-74
2021/10/10 03:17:47;;;;;;;18.50;8.73;;;4.60;99.90;;;;;;1938780;73;21126;-75
2021/10/10 03:20:14;;;;;;;14.18;8.85;;;4.50;99.90;;;;;;1934642;72;21059;-75
2021/10/10 03:22:40;;;;;;;17.55;9.80;;;4.60;99.90;;;;;;1925283;72;21085;-75
2021/10/10 03:25:06;;;;;;;17.45;10.05;;;4.50;99.90;;;;;;1942111;72;21073;-75
2021/10/10 03:27:32;;;;;;;12.85;9.63;;;4.50;99.90;;;;;;1941318;73;21079;-75
2021/10/10 03:29:59;;;;;;;15.58;8.45;;;4.50;99.90;;;;;;1943036;72;21452;-75
2021/10/10 03:32:25;;;;;;;10.95;8.55;;;4.50;99.90;;;;;;1935067;73;21573;-75
2021/10/10 03:34:51;;;;;;;21.45;9.25;;;4.50;99.90;;;;;;1920480;73;21478;-75
2021/10/10 03:37:17;;;;;;;26.15;9.50;;;4.60;99.90;;;;;;1936871;71;21495;-75
2021/10/10 03:39:43;;;;;;;13.78;9.35;;;4.60;99.90;;;;;;1937854;71;21263;-75
2021/10/10 03:42:09;;;;;;;17.55;8.65;;;4.60;99.90;;;;;;1937833;73;21099;-75
2021/10/10 03:44:36;;;;;;;13.35;9.40;;;4.60;99.90;;;;;;1940777;72;21173;-75
2021/10/10 03:47:02;;;;;;;14.90;10.15;;;4.70;99.90;;;;;;1935839;73;21074;-75
2021/10/10 03:49:28;;;;;;;13.53;10.30;;;4.70;99.90;;;;;;1942866;72;21133;-75
2021/10/10 03:51:55;;;;;;;17.00;10.18;;;4.70;99.90;;;;;;1923265;73;21067;-75
2021/10/10 03:54:57;;;;;;;16.85;9.80;;;4.70;99.90;;;;;;1951272;72;21144;-75
2021/10/10 03:56:49;;;;;;;14.65;9.73;;;4.70;99.90;;;;;;1941922;73;21498;-75
2021/10/10 03:59:15;;;;;;;16.10;10.35;;;4.60;99.90;;;;;;1944542;72;21136;-75
2021/10/10 04:01:42;;;;;;;17.15;10.75;;;4.60;99.90;;;;;;1934669;73;21043;-75
2021/10/10 04:04:08;;;;;;;16.05;10.48;;;4.60;99.90;;;;;;1926547;73;21487;-75
2021/10/10 04:06:34;;;;;;;15.48;10.20;;;4.60;99.90;;;;;;1921379;72;21506;-75
2021/10/10 04:09:00;;;;;;;15.05;9.83;;;4.60;99.90;;;;;;1930590;72;21140;-75
2021/10/10 04:11:26;;;;;;;16.52;10.78;;;4.60;99.90;;;;;;1943868;72;21132;-75
2021/10/10 04:13:52;;;;;;;16.52;9.30;;;4.50;99.90;;;;;;1932349;73;21039;-75
2021/10/10 04:16:19;;;;;;;11.78;10.08;;;4.50;99.90;;;;;;1942348;72;21133;-75
2021/10/10 04:18:45;;;;;;;12.07;9.25;;;4.40;99.90;;;;;;1945541;72;21063;-75
2021/10/10 04:21:11;;;;;;;13.40;9.53;;;4.40;99.90;;;;;;1943014;72;21173;-75
2021/10/10 04:23:37;;;;;;;14.68;10.15;;;4.40;99.90;;;;;;1922858;72;21140;-75
2021/10/10 04:26:03;;;;;;;14.95;9.18;;;4.50;99.90;;;;;;1929168;73;21043;-74
2021/10/10 04:28:29;;;;;;;17.37;9.93;;;4.40;99.90;;;;;;1921916;72;21052;-76
2021/10/10 04:30:55;;;;;;;13.55;9.40;;;4.50;99.90;;;;;;1938685;71;21262;-76
2021/10/10 04:33:21;;;;;;;13.58;9.60;;;4.40;99.90;;;;;;1931612;72;21111;-76
2021/10/10 04:35:48;;;;;;;19.77;9.33;;;4.40;99.90;;;;;;1943532;71;21129;-76
2021/10/10 04:38:15;;;;;;;17.55;9.53;;;4.30;99.90;;;;;;1926760;72;21068;-76
2021/10/10 04:40:41;;;;;;;15.93;9.35;;;4.40;99.90;;;;;;1940588;72;21078;-77
2021/10/10 04:43:07;;;;;;;12.50;8.85;;;4.40;99.90;;;;;;1911983;72;21035;-76
2021/10/10 04:45:34;;;;;;;20.45;10.43;;;4.40;99.90;;;;;;1919378;72;21071;-76
2021/10/10 04:48:00;;;;;;;13.70;8.95;;;4.30;99.90;;;;;;1938471;72;21552;-76
2021/10/10 04:50:26;;;;;;;16.50;9.43;;;4.30;99.90;;;;;;1926433;72;22011;-76
2021/10/10 04:52:52;;;;;;;16.67;9.58;;;4.30;99.90;;;;;;1944600;72;21620;-76
2021/10/10 04:55:18;;;;;;;11.40;9.10;;;4.20;99.90;;;;;;1934603;72;21039;-77
2021/10/10 04:57:44;;;;;;;19.90;9.75;;;4.20;99.90;;;;;;1925462;73;21134;-76
2021/10/10 05:00:10;;;;;;;14.50;9.80;;;4.10;99.90;;;;;;1920094;72;21062;-76
2021/10/10 05:02:36;;;;;;;20.10;9.53;;;4.10;99.90;;;;;;1947261;72;21066;-76
2021/10/10 05:05:03;;;;;;;27.48;13.20;;;4.00;99.90;;;;;;1933805;72;21132;-76
2021/10/10 05:07:29;;;;;;;14.33;9.75;;;4.00;99.90;;;;;;1941241;72;21082;-76
2021/10/10 05:09:56;;;;;;;12.68;10.00;;;4.00;99.90;;;;;;1927157;72;21063;-76
2021/10/10 05:12:22;;;;;;;13.38;9.03;;;3.90;99.90;;;;;;1924692;72;21028;-76
2021/10/10 05:14:48;;;;;;;14.45;8.80;;;3.90;99.90;;;;;;1922490;73;21062;-76
2021/10/10 05:17:14;;;;;;;15.20;9.48;;;3.80;99.90;;;;;;1927038;72;21075;-76
2021/10/10 05:19:40;;;;;;;14.00;9.88;;;3.80;99.90;;;;;;1927798;73;21062;-75
2021/10/10 05:22:06;;;;;;;12.88;9.23;;;3.80;99.90;;;;;;1930635;72;21132;-76
2021/10/10 05:24:32;;;;;;;16.05;10.15;;;3.80;99.90;;;;;;1953354;71;21214;-76
2021/10/10 05:27:00;;;;;;;13.32;9.23;;;3.70;99.90;;;;;;1939466;72;21043;-76
2021/10/10 05:29:26;;;;;;;16.25;9.63;;;3.70;99.90;;;;;;1940782;72;21052;-76
2021/10/10 05:31:52;;;;;;;14.45;11.18;;;3.70;99.90;;;;;;1945445;71;21198;-75
2021/10/10 05:34:18;;;;;;;14.87;10.48;;;3.70;99.90;;;;;;1940196;72;21066;-76
2021/10/10 05:36:45;;;;;;;14.58;9.90;;;3.60;99.90;;;;;;1938511;73;21059;-76
2021/10/10 05:39:11;;;;;;;16.35;9.90;;;3.60;99.90;;;;;;1927475;72;21047;-76
2021/10/10 05:41:37;;;;;;;13.88;9.63;;;3.60;99.90;;;;;;1930058;73;21063;-76
2021/10/10 05:44:04;;;;;;;12.63;9.65;;;3.60;99.90;;;;;;1918894;72;21151;-76
2021/10/10 05:46:30;;;;;;;14.68;9.48;;;3.60;99.90;;;;;;1936325;72;21067;-76
2021/10/10 05:48:56;;;;;;;16.60;9.75;;;3.60;99.90;;;;;;1933606;72;21075;-75
2021/10/10 05:51:22;;;;;;;17.30;9.65;;;3.60;99.90;;;;;;1937661;72;21063;-76
2021/10/10 05:53:48;;;;;;;14.47;9.20;;;3.60;99.90;;;;;;1932126;73;21054;-76
2021/10/10 05:56:16;;;;;;;15.05;9.13;;;3.60;99.90;;;;;;1934172;73;21052;-76
2021/10/10 05:58:44;;;;;;;18.15;9.70;;;3.60;99.90;;;;;;1949244;72;21205;-76
2021/10/10 06:01:10;;;;;;;14.40;9.28;;;3.60;99.90;;;;;;1922910;73;21591;-76
2021/10/10 06:03:36;;;;;;;12.05;9.15;;;3.60;99.90;;;;;;1940849;72;21535;-75
2021/10/10 06:06:02;;;;;;;14.30;9.70;;;3.60;99.90;;;;;;1940522;72;21537;-76
2021/10/10 06:08:28;;;;;;;13.62;9.45;;;3.60;99.90;;;;;;1941301;71;21661;-76
2021/10/10 06:10:54;;;;;;;17.07;9.73;;;3.60;99.90;;;;;;1940912;72;21105;-76
2021/10/10 06:13:20;;;;;;;14.58;8.95;;;3.60;99.90;;;;;;1945563;73;21185;-76
2021/10/10 06:15:48;;;;;;;16.27;10.10;;;3.60;99.90;;;;;;1941697;73;21144;-76
2021/10/10 06:18:14;;;;;;;16.05;9.75;;;3.60;99.90;;;;;;1942582;73;21454;-76
2021/10/10 06:20:40;;;;;;;11.88;9.03;;;3.60;99.90;;;;;;1942467;73;21682;-76
2021/10/10 06:23:06;;;;;;;16.02;9.83;;;3.60;99.90;;;;;;1931882;72;21072;-76
2021/10/10 06:25:33;;;;;;;16.57;9.40;;;3.60;99.90;;;;;;1937283;73;21040;-77
2021/10/10 06:27:59;;;;;;;10.68;9.18;;;3.70;99.90;;;;;;1920246;73;21070;-76
2021/10/10 06:30:25;;;;;;;17.17;9.35;;;3.80;99.90;;;;;;1945618;72;21063;-76
2021/10/10 06:32:51;;;;;;;12.30;9.18;;;3.80;99.90;;;;;;1939032;71;21136;-76
2021/10/10 06:35:17;;;;;;;12.82;9.68;;;3.90;99.90;;;;;;1926389;71;21055;-76
2021/10/10 06:37:43;;;;;;;12.35;9.28;;;3.90;99.90;;;;;;1943420;72;21059;-76
2021/10/10 06:40:09;;;;;;;15.35;10.08;;;3.90;99.90;;;;;;1932653;73;21162;-76
2021/10/10 06:42:36;;;;;;;43.30;9.43;;;4.00;99.90;;;;;;1948341;71;21071;-76
2021/10/10 06:45:03;;;;;;;16.85;10.70;;;4.10;99.90;;;;;;1941405;72;21128;-76
2021/10/10 06:47:29;;;;;;;13.83;9.53;;;4.00;99.90;;;;;;1932814;72;21148;-77
2021/10/10 06:49:55;;;;;;;14.58;9.10;;;4.00;99.90;;;;;;1930217;72;21149;-76
2021/10/10 06:52:21;;;;;;;23.15;10.23;;;4.10;99.90;;;;;;1931470;72;21136;-78
2021/10/10 06:54:47;;;;;;;18.25;9.40;;;4.10;99.90;;;;;;1941420;72;21039;-77
2021/10/10 06:57:13;;;;;;;18.57;10.48;;;4.20;99.90;;;;;;1941547;72;21074;-80
2021/10/10 06:59:39;;;;;;;27.05;10.38;;;4.20;99.90;;;;;;1927917;72;21063;-81
2021/10/10 07:02:05;;;;;;;12.60;9.28;;;4.20;99.90;;;;;;1934029;72;21072;-77
2021/10/10 07:04:32;;;;;;;15.78;9.35;;;4.40;99.90;;;;;;1918651;73;21098;-78
2021/10/10 07:06:58;;;;;;;16.75;10.03;;;4.50;99.90;;;;;;1927467;72;21039;-78
2021/10/10 07:09:24;;;;;;;12.25;9.03;;;4.70;99.90;;;;;;1932952;72;21066;-79
2021/10/10 07:11:50;;;;;;;14.13;9.83;;;4.80;99.90;;;;;;1934209;71;21079;-79
2021/10/10 07:14:16;;;;;;;18.20;10.23;;;4.90;99.90;;;;;;1935322;73;21078;-79
2021/10/10 07:16:43;;;;;;;15.72;9.68;;;5.00;99.90;;;;;;1914136;73;21107;-80
2021/10/10 07:19:09;;;;;;;15.85;10.70;;;5.00;99.90;;;;;;1929808;72;21087;-79
2021/10/10 07:21:44;;;;;;;17.62;10.55;;;5.00;99.90;;;;;;1945638;73;21035;-80
2021/10/10 07:24:54;;;;;;;15.30;10.68;;;5.00;99.90;;;;;;1927313;72;21504;-78
2021/10/10 07:26:39;;;;;;;;;;;5.10;99.90;;;;;;1928192;72;21448;-80
2021/10/10 07:29:05;;;;;;;16.50;10.40;;;5.20;99.90;;;;;;1943556;72;20112;-81
2021/10/10 07:31:31;;;;;;;12.30;9.98;;;5.30;99.90;;;;;;1948332;71;21148;-81
2021/10/10 07:33:57;;;;;;;17.70;10.78;;;5.50;99.90;;;;;;1926502;73;21200;-82
2021/10/10 07:36:23;;;;;;;16.90;10.28;;;5.70;99.90;;;;;;1923894;72;21075;-78
2021/10/10 07:38:49;;;;;;;18.07;9.95;;;5.80;99.90;;;;;;1908027;73;21475;-79
2021/10/10 07:41:16;;;;;;;27.85;10.50;;;5.90;99.90;;;;;;1938406;72;21581;-79
2021/10/10 07:43:42;;;;;;;17.10;10.28;;;6.00;99.90;;;;;;1919937;72;21494;-79
2021/10/10 07:46:20;;;;;;;16.20;10.35;;;6.00;99.90;;;;;;1915159;72;21079;-79
2021/10/10 07:48:46;;;;;;;16.37;9.98;;;6.20;99.90;;;;;;1943630;73;21419;-78
2021/10/10 07:51:13;;;;;;;15.88;9.90;;;6.50;99.90;;;;;;1917385;72;21432;-78
2021/10/10 07:53:39;;;;;;;12.90;10.28;;;6.70;99.90;;;;;;1923489;72;21066;-78
2021/10/10 07:56:05;;;;;;;14.73;10.10;;;6.80;99.90;;;;;;1912733;72;21156;-79
2021/10/10 07:58:31;;;;;;;14.05;10.35;;;6.80;99.90;;;;;;1953099;72;21087;-79
2021/10/10 08:00:58;;;;;;;15.00;9.95;;;7.00;99.90;;;;;;1942639;73;21079;-79
2021/10/10 08:03:24;;;;;;;12.43;9.08;;;7.30;99.90;;;;;;1929478;73;21078;-78
2021/10/10 08:05:50;;;;;;;15.78;10.00;;;7.60;99.90;;;;;;1918881;73;21078;-79
2021/10/10 08:08:17;;;;;;;15.23;9.38;;;7.80;99.90;;;;;;1931830;72;21152;-78
2021/10/10 08:10:43;;;;;;;18.90;10.40;;;7.90;99.90;;;;;;1942592;72;21099;-79
2021/10/10 08:13:09;;;;;;;14.05;9.18;;;8.20;99.90;;;;;;1937093;71;21083;-79
2021/10/10 08:15:35;;;;;;;10.93;9.33;;;8.50;99.90;;;;;;1944353;72;21074;-79
2021/10/10 08:18:01;;;;;;;13.55;8.80;;;8.80;99.90;;;;;;1913787;72;21157;-78
2021/10/10 08:20:27;;;;;;;15.25;9.43;;;8.90;99.90;;;;;;1929003;73;21043;-82
2021/10/10 08:22:54;;;;;;;14.13;9.00;;;9.40;99.90;;;;;;1931921;72;21074;-82
2021/10/10 08:25:21;;;;;;;14.95;9.90;;;9.80;99.90;;;;;;1934520;72;21151;-82
2021/10/10 08:27:48;;;;;;;19.23;10.32;;;10.00;99.90;;;;;;1906018;72;21150;-82
2021/10/10 08:30:14;;;;;;;12.13;9.55;;;9.90;99.90;;;;;;1941240;72;21079;-81
2021/10/10 08:32:41;;;;;;;16.05;9.33;;;9.90;99.90;;;;;;1929794;72;21069;-81
2021/10/10 08:35:07;;;;;;;15.80;9.45;;;9.70;99.90;;;;;;1941383;72;21083;-81
2021/10/10 08:37:33;;;;;;;14.73;9.03;;;10.10;99.90;;;;;;1941050;72;21183;-80
2021/10/10 08:39:59;;;;;;;13.75;9.83;;;10.10;99.90;;;;;;1941990;73;21498;-80
2021/10/10 08:42:31;;;;;;;19.75;10.45;;;10.30;99.90;;;;;;1936056;72;21463;-79
2021/10/10 08:44:53;;;;;;;14.03;9.70;;;10.30;99.90;;;;;;1912163;72;21071;-80
2021/10/10 08:47:20;;;;;;;19.62;10.80;;;10.10;99.90;;;;;;1928959;72;21608;-78
2021/10/10 08:49:46;;;;;;;27.22;11.05;;;10.30;99.90;;;;;;1937492;73;21462;-78
2021/10/10 08:52:14;;;;;;;16.02;10.00;;;10.50;99.90;;;;;;1935556;71;21544;-80
2021/10/10 08:54:40;;;;;;;12.50;9.38;;;10.90;99.90;;;;;;1932062;72;21092;-78
2021/10/10 08:57:08;;;;;;;17.23;9.75;;;11.40;99.90;;;;;;1930685;73;21078;-78
2021/10/10 08:59:35;;;;;;;16.62;10.63;;;11.20;99.90;;;;;;1936893;72;21195;-84
2021/10/10 09:02:01;;;;;;;20.05;10.68;;;11.00;99.90;;;;;;1939907;72;21478;-83
2021/10/10 09:04:27;;;;;;;18.20;9.88;;;11.10;99.90;;;;;;1938159;72;21415;-82
2021/10/10 09:06:54;;;;;;;20.65;10.60;;;11.60;99.90;;;;;;1934722;73;21125;-81
2021/10/10 09:09:21;;;;;;;15.50;9.95;;;11.60;99.90;;;;;;1919912;72;21090;-79
2021/10/10 09:11:47;;;;;;;24.60;10.38;;;11.50;99.90;;;;;;1928263;71;21035;-79
2021/10/10 09:14:13;;;;;;;16.07;9.78;;;12.10;99.90;;;;;;1938303;72;21118;-80
2021/10/10 09:16:39;;;;;;;17.35;10.18;;;12.70;99.90;;;;;;1926161;72;21311;-78
2021/10/10 09:19:05;;;;;;;21.33;11.05;;;12.50;99.90;;;;;;1933942;72;21095;-81
2021/10/10 09:21:32;;;;;;;13.75;9.35;;;12.50;99.90;;;;;;1932222;73;21075;-81
2021/10/10 09:23:58;;;;;;;12.73;9.83;;;13.20;99.90;;;;;;1917412;72;21298;-80
2021/10/10 09:26:24;;;;;;;23.50;10.80;;;13.80;99.90;;;;;;1931078;71;21066;-81
2021/10/10 09:28:50;;;;;;;17.15;9.73;;;13.10;99.90;;;;;;1943456;71;21157;-81
2021/10/10 09:31:16;;;;;;;14.40;9.28;;;13.60;99.90;;;;;;1932324;72;21128;-81
2021/10/10 09:33:44;;;;;;;14.50;9.43;;;14.00;99.90;;;;;;1934788;72;21074;-80
2021/10/10 09:36:17;;;;;;;14.85;9.68;;;13.90;99.90;;;;;;1938117;72;21460;-81
2021/10/10 09:38:45;;;;;;;16.82;9.85;;;14.10;99.90;;;;;;1926078;73;21082;-82
2021/10/10 09:41:12;;;;;;;;;;;14.50;99.90;;;;;;1941040;72;21100;-82
2021/10/10 09:43:36;;;;;;;17.40;9.03;;;14.80;99.90;;;;;;1935765;72;20175;-82
2021/10/10 09:46:02;;;;;;;15.05;9.00;;;15.20;99.90;;;;;;1940121;72;21216;-82
2021/10/10 09:48:29;;;;;;;12.98;9.13;;;15.30;99.90;;;;;;1947541;72;21153;-82
2021/10/10 09:50:55;;;;;;;13.62;9.15;;;15.00;99.90;;;;;;1948560;72;21270;-81
2021/10/10 09:53:22;;;;;;;21.07;9.38;;;15.00;99.90;;;;;;1939716;72;21048;-82
2021/10/10 09:55:48;;;;;;;15.68;9.15;;;15.20;99.90;;;;;;1941412;72;21124;-82
2021/10/10 09:58:15;;;;;;;16.10;9.53;;;15.50;99.90;;;;;;1940327;72;21230;-81
2021/10/10 10:00:41;;;;;;;14.43;9.55;;;15.40;99.90;;;;;;1941290;72;21262;-81
2021/10/10 10:03:11;;;;;;;15.83;9.30;;;15.40;99.90;;;;;;1934875;72;21043;-82
2021/10/10 10:05:37;;;;;;;20.43;10.25;;;14.60;99.90;;;;;;1925813;72;21487;-81
2021/10/10 10:08:03;;;;;;;16.25;8.73;;;14.80;99.90;;;;;;1929382;73;21432;-82
2021/10/10 10:10:30;;;;;;;21.20;13.75;;;15.10;99.90;;;;;;1925144;73;21039;-82
2021/10/10 10:12:56;;;;;;;17.98;9.18;;;15.20;99.90;;;;;;1939340;72;21067;-82
2021/10/10 10:15:22;;;;;;;16.97;9.30;;;14.80;99.90;;;;;;1937461;72;21148;-83
2021/10/10 10:17:48;;;;;;;15.63;8.90;;;14.80;99.90;;;;;;1934387;72;21053;-82
2021/10/10 10:20:14;;;;;;;12.03;8.65;;;15.70;99.90;;;;;;1945872;73;21078;-83
2021/10/10 10:22:40;;;;;;;13.38;8.18;;;16.20;99.90;;;;;;1923111;73;21067;-83
2021/10/10 10:25:06;;;;;;;15.58;9.23;;;15.00;99.90;;;;;;1926216;72;21141;-84
2021/10/10 10:27:33;;;;;;;13.50;8.38;;;15.00;99.90;;;;;;1920932;73;21110;-83
2021/10/10 10:29:59;;;;;;;18.07;8.33;;;15.70;99.90;;;;;;1940084;71;21064;-83
2021/10/10 10:32:25;;;;;;;14.90;7.85;;;16.00;99.90;;;;;;1933096;73;21141;-83
2021/10/10 10:34:51;;;;;;;13.30;7.95;;;16.90;99.90;;;;;;1926409;72;21072;-84
2021/10/10 10:37:17;;;;;;;13.55;8.15;;;17.00;99.90;;;;;;1940759;72;21078;-84
2021/10/10 10:39:43;;;;;;;11.15;7.30;;;17.00;99.90;;;;;;1944807;73;21110;-83
2021/10/10 10:42:09;;;;;;;17.32;7.42;;;16.80;99.90;;;;;;1945732;71;21071;-83
2021/10/10 10:44:36;;;;;;;21.73;6.78;;;16.80;99.90;;;;;;1919341;72;21066;-83
2021/10/10 10:47:02;;;;;;;16.75;7.28;;;17.10;99.90;;;;;;1935358;72;21148;-83
2021/10/10 10:49:28;;;;;;;9.95;7.03;;;17.20;99.90;;;;;;1928766;72;21075;-82
2021/10/10 10:51:54;;;;;;;13.00;7.20;;;16.70;99.90;;;;;;1938367;72;21077;-83
2021/10/10 10:54:20;;;;;;;16.05;6.80;;;16.70;99.90;;;;;;1936075;72;21140;-83
2021/10/10 10:56:46;;;;;;;13.70;6.95;;;16.70;99.90;;;;;;1917749;72;21152;-83
2021/10/10 10:59:12;;;;;;;13.70;6.53;;;16.70;99.90;;;;;;1928666;72;21040;-80
2021/10/10 11:01:43;;;;;;;12.15;7.75;;;16.80;99.90;;;;;;1938901;71;21152;-83
2021/10/10 11:04:10;;;;;;;14.43;7.10;;;16.90;99.90;;;;;;1939528;72;21277;-84
2021/10/10 11:06:34;;;;;;;15.30;6.65;;;16.80;99.90;;;;;;1942130;72;21504;-80
2021/10/10 11:09:00;;;;;;;9.48;5.97;;;17.30;99.90;;;;;;1912082;73;21569;-81
2021/10/10 11:11:26;;;;;;;12.47;6.47;;;17.50;99.90;;;;;;1924499;72;21078;-82
2021/10/10 11:13:54;;;;;;;13.38;7.00;;;16.70;99.90;;;;;;1935430;72;21075;-83
2021/10/10 11:16:20;;;;;;;10.00;7.03;;;17.00;99.90;;;;;;1947006;71;21586;-85
2021/10/10 11:18:46;;;;;;;13.13;6.17;;;17.20;99.90;;;;;;1917605;72;21564;-82
2021/10/10 11:21:13;;;;;;;10.68;6.05;;;17.40;99.90;;;;;;1917382;72;21475;-83
2021/10/10 11:23:39;;;;;;;9.18;6.85;;;17.30;99.90;;;;;;1918057;72;21538;-83
2021/10/10 11:26:05;;;;;;;11.20;6.72;;;17.60;99.90;;;;;;1928685;72;21576;-83
2021/10/10 11:28:31;;;;;;;8.55;6.05;;;17.90;99.90;;;;;;1923072;72;21556;-82
2021/10/10 11:30:57;;;;;;;11.30;6.53;;;17.50;99.90;;;;;;1927121;72;21475;-81
2021/10/10 11:33:23;;;;;;;9.78;6.35;;;17.60;99.90;;;;;;1940874;73;21456;-82
2021/10/10 11:35:52;;;;;;;15.15;6.95;;;17.00;99.90;;;;;;1922953;72;21067;-84
2021/10/10 11:38:19;;;;;;;8.68;5.95;;;17.20;99.90;;;;;;1934212;72;21040;-82
2021/10/10 11:40:45;;;;;;;10.82;6.37;;;17.40;99.90;;;;;;1943816;72;21067;-81
2021/10/10 11:43:11;;;;;;;14.33;6.75;;;17.30;99.90;;;;;;1937755;71;21113;-82
2021/10/10 11:45:37;;;;;;;11.63;6.70;;;17.30;99.90;;;;;;1942805;72;21074;-81
2021/10/10 11:48:03;;;;;;;15.58;6.35;;;17.60;99.90;;;;;;1918602;73;21122;-82
2021/10/10 11:50:29;;;;;;;22.32;6.70;;;17.80;99.90;;;;;;1942875;72;21490;-82
2021/10/10 11:52:58;;;;;;;11.83;6.10;;;18.00;99.90;;;;;;1948220;72;21493;-82
2021/10/10 11:55:27;;;;;;;14.50;6.08;;;18.00;99.90;;;;;;1935484;72;21175;-80
2021/10/10 11:57:51;;;;;;;10.93;6.12;;;18.30;99.90;;;;;;1926628;72;21208;-81
2021/10/10 12:00:19;;;;;;;9.08;5.97;;;18.70;99.90;;;;;;1946379;71;21066;-81
2021/10/10 12:02:45;;;;;;;9.43;5.83;;;18.00;99.90;;;;;;1920211;73;21461;-84
2021/10/10 12:05:11;;;;;;;8.28;6.05;;;18.50;99.90;;;;;;1938499;72;21094;-82
2021/10/10 12:07:37;;;;;;;9.85;6.25;;;18.50;99.90;;;;;;1946654;72;22412;-82
2021/10/10 12:10:03;;;;;;;10.58;6.08;;;18.50;99.90;;;;;;1931329;72;21197;-82
2021/10/10 12:12:29;;;;;;;10.58;5.62;;;18.30;99.90;;;;;;1921214;72;21140;-82
2021/10/10 12:14:56;;;;;;;14.75;6.22;;;18.50;99.90;;;;;;1930583;72;21074;-81
2021/10/10 12:17:22;;;;;;;9.35;6.05;;;17.60;99.90;;;;;;1937989;72;21140;-81
2021/10/10 12:19:48;;;;;;;17.85;5.62;;;17.80;99.90;;;;;;1938525;73;21074;-81
2021/10/10 12:22:14;;;;;;;9.00;5.58;;;18.20;99.90;;;;;;1937074;73;21455;-83
2021/10/10 12:24:40;;;;;;;7.95;5.85;;;18.90;99.90;;;;;;1922455;72;21569;-82
2021/10/10 12:27:06;;;;;;;9.48;5.80;;;18.40;99.90;;;;;;1924382;72;21467;-83
2021/10/10 12:29:32;;;;;;;10.18;5.90;;;18.00;99.90;;;;;;1938862;72;21545;-83
2021/10/10 12:31:58;;;;;;;10.55;5.60;;;18.70;99.90;;;;;;1947085;72;21145;-84
2021/10/10 12:34:25;;;;;;;9.85;5.83;;;18.80;99.90;;;;;;1932726;72;21036;-84
2021/10/10 12:36:54;;;;;;;13.20;5.70;;;18.50;99.90;;;;;;1928713;72;21044;-83